createdAt,value
2018-01-25T00:00:17.423Z,27.83
2018-01-25T00:02:44.222Z,26.37
2018-01-25T00:05:10.994Z,26.80
2018-01-25T00:07:37.763Z,28.60
2018-01-25T00:10:04.558Z,25.67
2018-01-25T00:12:31.314Z,25.80
2018-01-25T00:14:58.127Z,26.67
2018-01-25T00:17:24.922Z,27.10
2018-01-25T00:19:51.697Z,23.93
2018-01-25T00:22:19.181Z,26.73
2018-01-25T00:24:45.938Z,24.80
2018-01-25T00:27:12.698Z,27.13
2018-01-25T00:29:39.473Z,26.00
2018-01-25T00:32:06.219Z,24.83
2018-01-25T00:34:32.994Z,28.13
2018-01-25T00:37:00.012Z,26.87
2018-01-25T00:39:26.851Z,27.17
2018-01-25T00:41:53.631Z,25.00
2018-01-25T00:44:20.396Z,26.90
2018-01-25T00:46:47.153Z,27.43
2018-01-25T00:49:14.102Z,21.40
2018-01-25T00:51:40.858Z,24.13
2018-01-25T00:54:07.620Z,24.60
2018-01-25T00:56:34.848Z,24.60
2018-01-25T00:59:05.365Z,23.90
2018-01-25T01:01:32.150Z,27.10
2018-01-25T01:03:59.635Z,25.20
2018-01-25T01:06:26.373Z,25.57
2018-01-25T01:08:53.103Z,27.80
2018-01-25T01:11:19.875Z,22.53
2018-01-25T01:13:47.101Z,23.90
2018-01-25T01:16:13.850Z,24.90
2018-01-25T01:18:40.693Z,29.63
2018-01-25T01:21:07.481Z,27.73
2018-01-25T01:23:34.233Z,25.70
2018-01-25T01:26:01.000Z,28.50
2018-01-25T01:28:27.745Z,29.80
2018-01-25T01:30:54.666Z,27.93
2018-01-25T01:33:21.425Z,27.37
2018-01-25T01:35:48.209Z,26.17
2018-01-25T01:38:14.970Z,23.50
2018-01-25T01:40:41.768Z,27.20
2018-01-25T01:43:08.537Z,27.63
2018-01-25T01:45:35.291Z,25.77
2018-01-25T01:48:02.717Z,26.17
2018-01-25T01:50:29.499Z,24.70
2018-01-25T01:52:56.250Z,28.13
2018-01-25T01:55:23.069Z,22.83
2018-01-25T01:57:49.877Z,31.90
2018-01-25T02:00:16.650Z,24.07
2018-01-25T02:02:43.417Z,24.73
2018-01-25T02:05:10.274Z,26.60
2018-01-25T02:07:37.152Z,26.60
2018-01-25T02:10:03.953Z,24.10
2018-01-25T02:12:30.866Z,28.83
2018-01-25T02:14:57.777Z,22.60
2018-01-25T02:17:25.009Z,21.90
2018-01-25T02:19:51.813Z,23.03
2018-01-25T02:22:18.606Z,23.10
2018-01-25T02:24:45.586Z,24.23
2018-01-25T02:27:12.438Z,27.50
2018-01-25T02:29:39.315Z,26.40
2018-01-25T02:32:06.356Z,24.43
2018-01-25T02:34:33.204Z,26.43
2018-01-25T02:37:00.198Z,25.77
2018-01-25T02:39:27.071Z,26.93
2018-01-25T02:41:53.979Z,27.63
2018-01-25T02:44:20.869Z,26.93
2018-01-25T02:46:47.783Z,30.03
2018-01-25T02:49:14.624Z,27.17
2018-01-25T02:51:41.517Z,28.40
2018-01-25T02:54:08.358Z,22.03
2018-01-25T02:56:35.252Z,28.33
2018-01-25T02:59:02.152Z,26.83
2018-01-25T03:01:28.949Z,25.40
2018-01-25T03:03:55.733Z,28.40
2018-01-25T03:06:22.525Z,25.07
2018-01-25T03:08:49.291Z,26.97
2018-01-25T03:11:16.051Z,25.80
2018-01-25T03:13:42.820Z,24.23
2018-01-25T03:16:09.574Z,25.77
2018-01-25T03:18:36.317Z,25.57
2018-01-25T03:21:03.117Z,25.97
2018-01-25T03:23:29.861Z,23.67
2018-01-25T03:25:56.638Z,25.27
2018-01-25T03:28:23.383Z,23.17
2018-01-25T03:30:50.174Z,24.67
2018-01-25T03:33:16.965Z,25.17
2018-01-25T03:35:43.719Z,23.43
2018-01-25T03:38:10.469Z,27.87
2018-01-25T03:40:37.282Z,29.10
2018-01-25T03:43:04.030Z,24.13
2018-01-25T03:45:31.485Z,26.47
2018-01-25T03:47:58.266Z,25.70
2018-01-25T03:50:25.025Z,24.00
2018-01-25T03:52:51.785Z,25.93
2018-01-25T03:55:18.518Z,26.87
2018-01-25T03:57:45.401Z,26.33
2018-01-25T04:00:12.160Z,28.20
2018-01-25T04:02:38.948Z,22.20
2018-01-25T04:05:05.713Z,26.37
2018-01-25T04:07:32.670Z,24.37
2018-01-25T04:09:59.454Z,26.73
2018-01-25T04:12:26.246Z,25.77
2018-01-25T04:14:53.024Z,26.03
2018-01-25T04:17:19.807Z,26.53
2018-01-25T04:19:47.108Z,24.07
2018-01-25T04:22:13.871Z,27.30
2018-01-25T04:24:40.621Z,25.50
2018-01-25T04:27:07.408Z,23.47
2018-01-25T04:29:34.213Z,26.57
2018-01-25T04:32:00.985Z,24.07
2018-01-25T04:34:27.823Z,22.23
2018-01-25T04:36:54.562Z,22.23
2018-01-25T04:39:21.305Z,25.23
2018-01-25T04:41:48.129Z,26.03
2018-01-25T04:44:14.963Z,28.03
2018-01-25T04:46:41.744Z,26.40
2018-01-25T04:49:08.522Z,26.63
2018-01-25T04:51:35.265Z,24.77
2018-01-25T04:54:02.058Z,24.30
2018-01-25T04:56:28.841Z,26.47
2018-01-25T04:58:55.798Z,25.50
2018-01-25T05:01:22.633Z,25.27
2018-01-25T05:03:49.383Z,25.37
2018-01-25T05:06:16.166Z,23.13
2018-01-25T05:08:42.939Z,23.37
2018-01-25T05:11:09.719Z,22.93
2018-01-25T05:13:36.469Z,22.90
2018-01-25T05:16:03.255Z,26.13
2018-01-25T05:18:30.185Z,24.37
2018-01-25T05:20:57.011Z,23.43
2018-01-25T05:23:23.775Z,26.80
2018-01-25T05:25:50.599Z,26.97
2018-01-25T05:28:17.357Z,26.23
2018-01-25T05:30:44.121Z,23.73
2018-01-25T05:33:10.925Z,25.00
2018-01-25T05:35:37.724Z,28.73
2018-01-25T05:38:04.477Z,24.97
2018-01-25T05:40:31.285Z,26.03
2018-01-25T05:42:58.056Z,24.07
2018-01-25T05:45:24.821Z,28.17
2018-01-25T05:47:51.607Z,27.70
2018-01-25T05:50:18.352Z,21.57
2018-01-25T05:52:45.117Z,27.13
2018-01-25T05:55:11.862Z,21.80
2018-01-25T05:57:38.625Z,25.83
2018-01-25T06:00:05.389Z,39.37
2018-01-25T06:02:32.162Z,26.07
2018-01-25T06:04:58.951Z,27.27
2018-01-25T06:07:25.689Z,25.30
2018-01-25T06:09:52.438Z,25.83
2018-01-25T06:12:19.218Z,27.87
2018-01-25T06:14:45.991Z,24.87
2018-01-25T06:17:12.715Z,27.40
2018-01-25T06:19:39.481Z,29.67
2018-01-25T06:22:06.244Z,27.57
2018-01-25T06:24:33.004Z,24.70
2018-01-25T06:26:59.758Z,25.83
2018-01-25T06:29:26.518Z,20.90
2018-01-25T06:31:53.433Z,24.93
2018-01-25T06:34:20.558Z,25.73
2018-01-25T06:36:47.285Z,28.20
2018-01-25T06:39:14.074Z,31.23
2018-01-25T06:41:40.865Z,27.40
2018-01-25T06:44:07.651Z,28.37
2018-01-25T06:46:34.525Z,30.07
2018-01-25T06:49:01.369Z,29.33
2018-01-25T06:51:28.170Z,29.57
2018-01-25T06:53:55.154Z,26.93
2018-01-25T06:56:22.107Z,30.27
2018-01-25T06:58:49.117Z,26.27
2018-01-25T07:01:16.121Z,27.63
2018-01-25T07:03:43.022Z,28.17
2018-01-25T07:06:09.935Z,28.30
2018-01-25T07:08:37.240Z,28.90
2018-01-25T07:11:04.155Z,32.67
2018-01-25T07:13:31.081Z,27.40
2018-01-25T07:15:57.950Z,30.13
2018-01-25T07:18:24.719Z,27.23
2018-01-25T07:20:51.569Z,30.10
2018-01-25T07:23:18.452Z,28.47
2018-01-25T07:25:45.335Z,27.53
2018-01-25T07:28:12.273Z,25.37
2018-01-25T07:30:39.248Z,29.17
2018-01-25T07:33:06.336Z,25.13
2018-01-25T07:35:33.285Z,28.77
2018-01-25T07:38:00.393Z,26.97
2018-01-25T07:40:27.255Z,28.43
2018-01-25T07:42:54.214Z,29.20
2018-01-25T07:45:21.112Z,24.90
2018-01-25T07:47:48.062Z,27.73
2018-01-25T07:50:15.174Z,26.60
2018-01-25T07:52:42.299Z,27.10
2018-01-25T07:55:09.229Z,23.60
2018-01-25T07:57:41.683Z,24.07
2018-01-25T08:00:08.510Z,22.27
2018-01-25T08:02:35.272Z,23.60
2018-01-25T08:05:02.052Z,29.30
2018-01-25T08:07:28.811Z,26.40
2018-01-25T08:09:57.298Z,26.13
2018-01-25T08:12:24.045Z,25.33
2018-01-25T08:14:50.874Z,21.77
2018-01-25T08:17:17.646Z,22.70
2018-01-25T08:19:44.926Z,24.47
2018-01-25T08:22:11.775Z,23.20
2018-01-25T08:24:38.529Z,26.03
2018-01-25T08:27:05.301Z,20.40
2018-01-25T08:29:32.053Z,25.13
2018-01-25T08:31:59.691Z,23.87
2018-01-25T08:34:26.508Z,22.27
2018-01-25T08:36:53.260Z,21.57
2018-01-25T08:39:20.027Z,20.73
2018-01-25T08:41:47.666Z,27.10
2018-01-25T08:44:14.432Z,18.23
2018-01-25T08:46:41.191Z,19.33
2018-01-25T08:49:07.987Z,22.53
2018-01-25T08:51:35.301Z,19.13
2018-01-25T08:54:02.124Z,21.53
2018-01-25T08:56:28.858Z,23.20
2018-01-25T08:59:02.131Z,19.37
2018-01-25T09:01:29.663Z,22.03
2018-01-25T09:03:56.519Z,17.17
2018-01-25T09:06:23.430Z,26.53
2018-01-25T09:08:50.302Z,21.70
2018-01-25T09:11:17.061Z,20.07
2018-01-25T09:13:43.842Z,22.30
2018-01-25T09:16:10.617Z,22.43
2018-01-25T09:18:38.203Z,23.00
2018-01-25T09:21:04.978Z,18.30
2018-01-25T09:23:31.774Z,18.33
2018-01-25T09:25:58.537Z,20.73
2018-01-25T09:28:25.304Z,21.87
2018-01-25T09:30:52.085Z,23.27
2018-01-25T09:33:18.908Z,20.50
2018-01-25T09:35:46.360Z,23.23
2018-01-25T09:38:13.747Z,19.47
2018-01-25T09:40:40.493Z,19.60
2018-01-25T09:43:07.252Z,18.30
2018-01-25T09:45:34.241Z,19.67
2018-01-25T09:48:01.293Z,23.20
2018-01-25T09:50:28.053Z,22.17
2018-01-25T09:52:54.878Z,23.53
2018-01-25T09:55:21.770Z,23.37
2018-01-25T09:57:48.525Z,23.57
2018-01-25T10:00:15.384Z,25.27
2018-01-25T10:02:42.223Z,21.70
2018-01-25T10:05:12.912Z,22.20
2018-01-25T10:07:39.737Z,23.87
2018-01-25T10:10:06.666Z,24.17
2018-01-25T10:12:33.540Z,22.00
2018-01-25T10:15:00.394Z,30.63
2018-01-25T10:17:27.163Z,33.97
2018-01-25T10:19:53.973Z,42.27
2018-01-25T10:22:20.792Z,20.73
2018-01-25T10:24:49.255Z,26.83
2018-01-25T10:27:17.269Z,28.90
2018-01-25T10:29:44.077Z,25.70
2018-01-25T10:32:10.867Z,22.67
2018-01-25T10:34:37.666Z,23.77
2018-01-25T10:37:04.423Z,21.47
2018-01-25T10:39:31.805Z,23.77
2018-01-25T10:41:58.585Z,25.30
2018-01-25T10:44:25.357Z,29.23
2018-01-25T10:46:52.147Z,30.63
2018-01-25T10:49:18.913Z,24.07
2018-01-25T10:51:46.634Z,20.63
2018-01-25T10:54:13.986Z,23.03
2018-01-25T10:56:40.865Z,21.77
2018-01-25T10:59:07.650Z,29.43
2018-01-25T11:01:40.305Z,28.80
2018-01-25T11:04:07.326Z,26.03
2018-01-25T11:06:34.098Z,27.77
2018-01-25T11:09:00.877Z,28.70
2018-01-25T11:11:27.682Z,29.23
2018-01-25T11:13:54.484Z,37.23
2018-01-25T11:16:21.362Z,35.50
2018-01-25T11:18:48.137Z,34.63
2018-01-25T11:21:14.912Z,29.63
2018-01-25T11:23:41.685Z,37.43
2018-01-25T11:26:13.645Z,31.90
2018-01-25T11:28:42.731Z,35.30
2018-01-25T11:31:09.501Z,35.60
2018-01-25T11:33:36.255Z,36.20
2018-01-25T11:36:03.072Z,36.27
2018-01-25T11:38:29.853Z,34.17
2018-01-25T11:40:56.633Z,33.40
2018-01-25T11:43:23.394Z,33.30
2018-01-25T11:45:52.371Z,34.63
2018-01-25T11:48:19.207Z,29.57
2018-01-25T11:50:46.288Z,31.97
2018-01-25T11:53:13.089Z,27.73
2018-01-25T11:55:39.877Z,32.97
2018-01-25T11:58:06.631Z,30.43
2018-01-25T12:00:33.471Z,32.90
2018-01-25T12:03:00.238Z,34.47
2018-01-25T12:05:26.993Z,33.57
2018-01-25T12:07:53.766Z,30.70
2018-01-25T12:10:20.539Z,32.10
2018-01-25T12:12:47.331Z,26.43
2018-01-25T12:15:14.203Z,28.03
2018-01-25T12:17:40.950Z,29.63
2018-01-25T12:20:07.714Z,27.33
2018-01-25T12:22:34.603Z,32.10
2018-01-25T12:25:01.409Z,30.67
2018-01-25T12:27:28.206Z,29.33
2018-01-25T12:29:55.117Z,31.83
2018-01-25T12:32:22.064Z,30.00
2018-01-25T12:34:56.117Z,32.23
2018-01-25T12:37:22.926Z,32.33
2018-01-25T12:39:49.717Z,33.87
2018-01-25T12:42:16.521Z,31.30
2018-01-25T12:44:43.282Z,30.57
2018-01-25T12:47:10.083Z,36.57
2018-01-25T12:49:36.883Z,29.80
2018-01-25T12:52:03.650Z,35.27
2018-01-25T12:54:30.468Z,31.70
2018-01-25T12:56:57.269Z,32.63
2018-01-25T12:59:24.027Z,35.20
2018-01-25T13:01:50.825Z,35.63
2018-01-25T13:04:17.598Z,30.57
2018-01-25T13:06:44.420Z,32.10
2018-01-25T13:09:11.193Z,34.13
2018-01-25T13:11:49.887Z,30.30
2018-01-25T13:14:17.546Z,30.30
2018-01-25T13:16:44.364Z,28.80
2018-01-25T13:19:11.137Z,29.17
2018-01-25T13:21:38.144Z,32.67
2018-01-25T13:24:04.920Z,33.33
2018-01-25T13:26:31.708Z,29.93
2018-01-25T13:28:58.501Z,28.43
2018-01-25T13:31:25.691Z,37.60
2018-01-25T13:33:52.518Z,32.07
2018-01-25T13:36:19.378Z,33.37
2018-01-25T13:38:46.135Z,37.73
2018-01-25T13:41:13.030Z,31.60
2018-01-25T13:43:39.806Z,32.93
2018-01-25T13:46:06.559Z,30.97
2018-01-25T13:48:38.243Z,31.17
2018-01-25T13:51:05.163Z,31.60
2018-01-25T13:53:32.202Z,35.23
2018-01-25T13:55:59.407Z,35.70
2018-01-25T13:58:26.375Z,34.30
2018-01-25T14:00:53.441Z,33.70
2018-01-25T14:03:20.415Z,34.67
2018-01-25T14:05:47.524Z,39.07
2018-01-25T14:08:14.687Z,38.40
2018-01-25T14:10:43.782Z,37.17
2018-01-25T14:13:10.630Z,37.83
2018-01-25T14:15:38.692Z,39.87
2018-01-25T14:18:05.502Z,30.37
2018-01-25T14:20:32.254Z,36.90
2018-01-25T14:22:59.091Z,34.33
2018-01-25T14:25:26.494Z,34.03
2018-01-25T14:27:53.379Z,30.37
2018-01-25T14:30:20.221Z,34.57
2018-01-25T14:32:47.086Z,34.03
2018-01-25T14:35:14.189Z,38.67
2018-01-25T14:37:40.990Z,38.07
2018-01-25T14:40:08.129Z,39.77
2018-01-25T14:42:35.077Z,36.90
2018-01-25T14:45:02.059Z,39.07
2018-01-25T14:47:28.861Z,38.80
2018-01-25T14:49:55.623Z,34.07
2018-01-25T14:52:22.462Z,34.30
2018-01-25T14:54:49.384Z,33.57
2018-01-25T14:57:16.246Z,34.33
2018-01-25T14:59:43.173Z,36.33
2018-01-25T15:02:10.106Z,35.57
2018-01-25T15:04:37.029Z,37.47
2018-01-25T15:07:03.916Z,34.23
2018-01-25T15:09:30.875Z,36.43
2018-01-25T15:11:57.992Z,55.53
2018-01-25T15:14:25.038Z,49.67
2018-01-25T15:16:52.007Z,36.90
2018-01-25T15:19:19.178Z,39.47
2018-01-25T15:21:46.093Z,36.70
2018-01-25T15:24:12.906Z,38.97
2018-01-25T15:26:45.626Z,40.37
2018-01-25T15:29:12.430Z,41.27
2018-01-25T15:31:39.278Z,39.43
2018-01-25T15:34:06.073Z,55.37
2018-01-25T15:36:32.835Z,54.10
2018-01-25T15:38:59.589Z,40.93
2018-01-25T15:41:26.401Z,41.97
2018-01-25T15:43:53.241Z,39.73
2018-01-25T15:46:19.985Z,37.27
2018-01-25T15:48:46.900Z,40.50
2018-01-25T15:51:13.679Z,40.67
2018-01-25T15:53:40.445Z,38.80
2018-01-25T15:56:07.197Z,42.07
2018-01-25T15:58:33.966Z,43.03
2018-01-25T16:01:01.037Z,39.90
2018-01-25T16:03:27.806Z,43.60
2018-01-25T16:05:54.981Z,39.27
2018-01-25T16:08:21.759Z,44.57
2018-01-25T16:10:48.513Z,46.43
2018-01-25T16:13:15.305Z,41.23
2018-01-25T16:15:42.079Z,41.50
2018-01-25T16:18:08.866Z,38.43
2018-01-25T16:20:35.654Z,37.20
2018-01-25T16:23:02.471Z,42.70
2018-01-25T16:25:29.237Z,42.57
2018-01-25T16:27:56.094Z,43.60
2018-01-25T16:30:22.909Z,46.40
2018-01-25T16:32:49.678Z,44.03
2018-01-25T16:35:16.680Z,43.03
2018-01-25T16:37:43.582Z,54.00
2018-01-25T16:40:10.411Z,59.53
2018-01-25T16:42:37.377Z,74.87
2018-01-25T16:45:04.279Z,50.03
2018-01-25T16:47:31.106Z,50.23
2018-01-25T16:49:58.109Z,41.73
2018-01-25T16:52:25.674Z,45.87
2018-01-25T16:54:53.127Z,42.57
2018-01-25T16:57:20.009Z,43.73
2018-01-25T16:59:47.101Z,40.10
2018-01-25T17:02:14.040Z,42.23
2018-01-25T17:04:40.812Z,38.87
2018-01-25T17:07:07.625Z,44.27
2018-01-25T17:09:35.159Z,46.50
2018-01-25T17:12:01.983Z,44.10
2018-01-25T17:14:28.844Z,39.47
2018-01-25T17:16:55.621Z,46.57
2018-01-25T17:19:22.494Z,37.73
2018-01-25T17:21:50.351Z,40.53
2018-01-25T17:24:17.693Z,41.47
2018-01-25T17:26:44.525Z,39.77
2018-01-25T17:29:12.634Z,46.80
2018-01-25T17:31:39.445Z,40.03
2018-01-25T17:34:06.213Z,38.60
2018-01-25T17:36:33.023Z,43.53
2018-01-25T17:38:59.802Z,44.37
2018-01-25T17:41:26.559Z,45.90
2018-01-25T17:43:53.320Z,41.63
2018-01-25T17:46:20.130Z,65.03
2018-01-25T17:48:47.233Z,56.47
2018-01-25T17:51:18.774Z,45.30
2018-01-25T17:53:45.749Z,45.60
2018-01-25T17:56:12.570Z,53.43
2018-01-25T17:58:39.334Z,47.33
2018-01-25T18:01:06.115Z,46.53
2018-01-25T18:03:32.891Z,38.37
2018-01-25T18:05:59.694Z,41.57
2018-01-25T18:08:26.471Z,36.83
2018-01-25T18:10:53.250Z,37.13
2018-01-25T18:13:20.014Z,39.13
2018-01-25T18:15:47.411Z,38.37
2018-01-25T18:18:14.177Z,39.87
2018-01-25T18:20:40.946Z,42.57
2018-01-25T18:23:07.706Z,38.43
2018-01-25T18:25:34.482Z,42.37
2018-01-25T18:28:01.453Z,38.30
2018-01-25T18:30:28.229Z,36.73
2018-01-25T18:32:54.983Z,38.60
2018-01-25T18:35:21.824Z,33.23
2018-01-25T18:37:48.646Z,39.60
2018-01-25T18:40:15.431Z,33.93
2018-01-25T18:42:42.187Z,36.10
2018-01-25T18:45:09.030Z,32.80
2018-01-25T18:47:35.874Z,34.77
2018-01-25T18:50:02.690Z,35.33
2018-01-25T18:52:29.465Z,33.00
2018-01-25T18:54:56.433Z,35.37
2018-01-25T18:57:23.213Z,35.50
2018-01-25T18:59:50.106Z,37.67
2018-01-25T19:02:16.873Z,29.87
2018-01-25T19:04:43.651Z,33.87
2018-01-25T19:07:10.615Z,31.90
2018-01-25T19:09:37.469Z,27.73
2018-01-25T19:12:04.402Z,29.40
2018-01-25T19:14:31.296Z,29.67
2018-01-25T19:16:58.489Z,31.93
2018-01-25T19:19:25.542Z,28.33
2018-01-25T19:21:53.803Z,28.57
2018-01-25T19:24:20.600Z,29.30
2018-01-25T19:26:47.390Z,25.70
2018-01-25T19:29:14.182Z,29.57
2018-01-25T19:31:40.981Z,27.83
2018-01-25T19:34:07.854Z,32.17
2018-01-25T19:36:34.661Z,30.13
2018-01-25T19:39:01.519Z,57.90
2018-01-25T19:41:30.171Z,47.47
2018-01-25T19:43:56.937Z,40.07
2018-01-25T19:46:23.796Z,33.70
2018-01-25T19:48:50.594Z,33.87
2018-01-25T19:51:17.363Z,28.90
2018-01-25T19:53:44.209Z,124.17
2018-01-25T19:59:06.657Z,37.27
2018-01-25T20:01:33.436Z,31.63
2018-01-25T20:04:00.970Z,34.30
2018-01-25T20:06:27.730Z,38.50
2018-01-25T20:08:54.529Z,31.87
2018-01-25T20:11:21.346Z,34.40
2018-01-25T20:13:48.236Z,30.83
2018-01-25T20:16:15.043Z,32.63
2018-01-25T20:18:41.842Z,35.10
2018-01-25T20:21:08.646Z,38.73
2018-01-25T20:23:35.785Z,36.20
2018-01-25T20:26:06.867Z,38.33
2018-01-25T20:28:33.815Z,34.53
2018-01-25T20:31:00.973Z,43.37
2018-01-25T20:33:27.992Z,36.23
2018-01-25T20:35:54.857Z,34.07
2018-01-25T20:38:21.619Z,30.83
2018-01-25T20:40:48.426Z,27.70
2018-01-25T20:43:16.911Z,32.50
2018-01-25T20:45:43.752Z,27.50
2018-01-25T20:48:10.522Z,31.37
2018-01-25T20:51:00.509Z,28.03
2018-01-25T20:53:49.806Z,29.20
2018-01-25T20:56:16.579Z,29.10
2018-01-25T20:58:43.331Z,31.83
2018-01-25T21:01:11.087Z,26.03
2018-01-25T21:03:39.140Z,27.67
2018-01-25T21:06:22.804Z,36.67
2018-01-25T21:08:49.742Z,29.13
2018-01-25T21:11:20.638Z,34.80
2018-01-25T21:13:47.387Z,27.97
2018-01-25T21:16:15.330Z,31.93
2018-01-25T21:18:52.355Z,29.17
2018-01-25T21:21:19.188Z,26.07
2018-01-25T21:23:45.976Z,27.93
2018-01-25T21:26:12.812Z,25.63
2018-01-25T21:28:40.802Z,30.27
2018-01-25T21:31:07.665Z,27.57
2018-01-25T21:33:35.478Z,29.43
2018-01-25T21:36:03.069Z,28.37
2018-01-25T21:38:29.980Z,31.03
2018-01-25T21:40:57.727Z,30.50
2018-01-25T21:43:24.509Z,32.83
2018-01-25T21:45:53.996Z,30.10
2018-01-25T21:48:20.778Z,31.70
2018-01-25T21:50:47.634Z,36.63
2018-01-25T21:53:15.332Z,34.40
2018-01-25T21:55:42.111Z,35.13
2018-01-25T21:58:09.577Z,40.37
2018-01-25T22:00:36.332Z,38.53
2018-01-25T22:03:03.180Z,39.57
2018-01-25T22:05:29.978Z,36.97
2018-01-25T22:07:56.731Z,37.17
2018-01-25T22:10:30.359Z,41.73
2018-01-25T22:12:57.265Z,43.93
2018-01-25T22:15:24.054Z,32.60
2018-01-25T22:17:50.864Z,33.10
2018-01-25T22:20:18.170Z,27.77
2018-01-25T22:22:44.963Z,29.77
2018-01-25T22:25:13.008Z,34.13
2018-01-25T22:27:42.631Z,39.17
2018-01-25T22:30:09.505Z,32.00
2018-01-25T22:32:36.609Z,29.43
2018-01-25T22:35:03.662Z,37.50
2018-01-25T22:37:30.782Z,33.77
2018-01-25T22:39:57.633Z,34.07
2018-01-25T22:42:28.042Z,36.57
2018-01-25T22:44:54.820Z,30.07
2018-01-25T22:47:21.604Z,32.83
2018-01-25T22:49:50.141Z,29.80
2018-01-25T22:52:16.884Z,32.00
2018-01-25T22:54:44.781Z,25.40
2018-01-25T22:57:12.509Z,28.67
2018-01-25T22:59:39.287Z,25.47
2018-01-25T23:02:06.081Z,23.77
2018-01-25T23:04:32.821Z,23.23
2018-01-25T23:06:59.988Z,26.90
2018-01-25T23:09:26.771Z,25.83
2018-01-25T23:11:53.573Z,28.80
2018-01-25T23:14:22.696Z,28.37
2018-01-25T23:16:52.710Z,23.00
2018-01-25T23:19:47.826Z,24.97
2018-01-25T23:22:15.968Z,27.43
2018-01-25T23:24:45.457Z,30.23
2018-01-25T23:27:33.187Z,30.03
2018-01-25T23:52:46.017Z,28.33
2018-01-25T23:55:13.102Z,30.33
2018-01-25T23:57:40.381Z,31.23
